Terminal Aerodrome Forecast
Issued by NWS

Current Version | Previous Version | Text Only | Print | Product List | Glossary Off
Versions: 1 2 3 4 5 6 7 8 9 10 11 12 13 14 15 16 17 18 19 20 21 22 23 24

000
FTUS41 KILN 271700
TAFLUK
TAF
KLUK 271740Z 2718/2818 30012G18KT P6SM VCSH OVC028
      TEMPO 2719/2722 5SM -SHSN BR OVC018
     FM280000 29006KT P6SM BKN028
     FM280600 VRB03KT P6SM SCT028
     FM281400 19008KT P6SM SCT028 BKN100=

USA.gov is the U.S. government's official web portal to all federal, state and local government web resources and services.